Time;durP1;ratioP1;P1;durP2;ratioP2;P2;SDS_P1;SDS_P2;PMS_P1;PMS_P2;Temp;Humidity;BMP_temperature;BMP_pressure;BME280_temperature;BME280_humidity;BME280_pressure;Samples;Min_cycle;Max_cycle;Signal;HPM_P1;HPM_P2
2023/12/16 00:01:16;;;;;;;;;;;;;;;7.01;89.56;103866.56;5019862;28;20456;-63
2023/12/16 00:03:41;;;;;;;;;;;;;;;7.03;89.29;103867.34;5026990;28;19949;-63
2023/12/16 00:06:07;;;;;;;;;;;;;;;7.03;89.36;103869.97;5018137;28;19922;-63
2023/12/16 00:08:32;;;;;;;;;;;;;;;7.02;89.23;103882.34;5015854;28;19924;-63
2023/12/16 00:10:57;;;;;;;;;;;;;;;7.02;89.38;103874.41;5024674;28;19925;-63
2023/12/16 00:13:23;;;;;;;;;;;;;;;7.02;89.41;103873.56;5024843;28;19961;-63
2023/12/16 00:15:48;;;;;;;;;;;;;;;7.02;89.49;103866.47;5023441;28;19925;-63
2023/12/16 00:18:13;;;;;;;;;;;;;;;6.99;88.80;103868.41;5020689;28;19924;-63
2023/12/16 00:20:38;;;;;;;;;;;;;;;7.01;88.59;103871.84;5021845;28;20725;-63
2023/12/16 00:23:04;;;;;;;;;;;;;;;7.01;88.50;103875.34;5018634;28;19921;-63
2023/12/16 00:25:29;;;;;;;;;;;;;;;7.02;88.50;103873.56;5014467;28;20123;-63
2023/12/16 00:27:54;;;;;;;;;;;;;;;7.03;88.53;103865.56;5023527;28;20378;-64
2023/12/16 00:30:19;;;;;;;;;;;;;;;7.02;88.32;103861.19;5016509;28;20034;-63
2023/12/16 00:32:44;;;;;;;;;;;;;;;7.05;88.54;103852.28;5019456;28;20394;-63
2023/12/16 00:35:10;;;;;;;;;;;;;;;7.04;88.22;103838.19;5019617;28;20015;-63
2023/12/16 00:37:35;;;;;;;;;;;;;;;7.07;88.11;103838.06;5013253;28;19924;-63
2023/12/16 00:40:01;;;;;;;;;;;;;;;7.10;87.66;103839.69;5017494;28;19918;-63
2023/12/16 00:42:27;;;;;;;;;;;;;;;7.10;87.63;103844.97;5021538;28;20008;-63
2023/12/16 00:44:52;;;;;;;;;;;;;;;7.12;87.63;103848.41;5024269;28;19921;-62
2023/12/16 00:47:17;;;;;;;;;;;;;;;7.13;86.77;103848.31;5017840;28;19924;-63
2023/12/16 00:49:43;;;;;;;;;;;;;;;7.15;86.67;103848.25;5014466;28;20311;-64
2023/12/16 00:52:09;;;;;;;;;;;;;;;7.16;86.38;103847.31;5016874;28;20414;-63
2023/12/16 00:54:34;;;;;;;;;;;;;;;7.17;86.61;103841.09;5012659;28;20011;-64
2023/12/16 00:56:59;;;;;;;;;;;;;;;7.17;86.64;103841.09;5023858;28;19921;-63
2023/12/16 00:59:26;;;;;;;;;;;;;;;7.18;86.30;103847.22;5015208;28;20814;-63
2023/12/16 01:01:51;;;;;;;;;;;;;;;7.17;86.28;103845.53;5013888;28;19925;-63
2023/12/16 01:04:16;;;;;;;;;;;;;;;7.16;86.03;103844.66;5013288;28;20547;-63
2023/12/16 01:06:41;;;;;;;;;;;;;;;7.18;86.06;103836.66;5013883;28;19924;-63
2023/12/16 01:09:07;;;;;;;;;;;;;;;7.17;85.53;103848.16;5014114;28;19917;-63
2023/12/16 01:11:33;;;;;;;;;;;;;;;7.18;85.98;103845.44;5011383;28;19917;-64
2023/12/16 01:13:58;;;;;;;;;;;;;;;7.16;85.62;103847.31;5006674;28;19925;-63
2023/12/16 01:16:23;;;;;;;;;;;;;;;7.17;85.58;103850.81;5019133;28;19956;-63
2023/12/16 01:18:48;;;;;;;;;;;;;;;7.17;85.51;103853.44;5018713;28;19921;-63
2023/12/16 01:21:15;;;;;;;;;;;;;;;7.18;85.48;103855.16;5014896;28;19925;-63
2023/12/16 01:23:40;;;;;;;;;;;;;;;7.18;85.54;103849.88;5016168;28;19917;-63
2023/12/16 01:26:05;;;;;;;;;;;;;;;7.18;85.34;103845.44;5022553;28;20224;-63
2023/12/16 01:28:30;;;;;;;;;;;;;;;7.16;85.85;103844.66;5008572;28;19917;-63
2023/12/16 01:30:56;;;;;;;;;;;;;;;7.13;85.85;103844.81;5012994;28;19917;-63
2023/12/16 01:33:21;;;;;;;;;;;;;;;7.10;86.14;103837.91;5015676;28;19928;-63
2023/12/16 01:35:46;;;;;;;;;;;;;;;7.07;86.08;103840.69;5012734;28;19932;-63
2023/12/16 01:38:11;;;;;;;;;;;;;;;7.05;86.02;103831.13;5014464;28;20012;-64
2023/12/16 01:40:37;;;;;;;;;;;;;;;7.02;86.18;103834.78;5014026;28;19918;-63
2023/12/16 01:43:06;;;;;;;;;;;;;;;7.03;86.25;103838.28;5017417;28;19928;-63
2023/12/16 01:45:32;;;;;;;;;;;;;;;7.01;86.18;103841.00;5015556;28;19976;-63
2023/12/16 01:47:59;;;;;;;;;;;;;;;6.99;86.46;103837.56;5017759;28;19921;-63
2023/12/16 01:50:24;;;;;;;;;;;;;;;6.97;86.60;103835.94;5014832;28;19972;-63
2023/12/16 01:52:51;;;;;;;;;;;;;;;6.96;86.24;103835.09;5010596;28;20020;-63
2023/12/16 01:55:16;;;;;;;;;;;;;;;6.93;86.75;103836.97;5020116;28;19925;-63
2023/12/16 01:57:42;;;;;;;;;;;;;;;6.93;86.65;103836.97;5011676;28;19921;-63
2023/12/16 02:00:08;;;;;;;;;;;;;;;6.89;86.98;103831.00;5022541;28;20374;-63
2023/12/16 02:02:33;;;;;;;;;;;;;;;6.87;86.60;103832.84;5017242;28;19917;-63
2023/12/16 02:04:59;;;;;;;;;;;;;;;6.84;86.47;103833.00;5023440;28;19943;-63
2023/12/16 02:07:24;;;;;;;;;;;;;;;6.83;86.68;103837.44;5009325;28;19931;-63
2023/12/16 02:09:49;;;;;;;;;;;;;;;6.84;86.27;103835.66;5016178;28;19921;-63
2023/12/16 02:12:15;;;;;;;;;;;;;;;6.84;86.02;103835.66;5019229;28;20579;-63
2023/12/16 02:14:40;;;;;;;;;;;;;;;6.91;86.45;103828.28;5016732;28;19921;-63
2023/12/16 02:17:05;;;;;;;;;;;;;;;6.90;85.80;103826.56;5020186;28;20366;-63
2023/12/16 02:19:31;;;;;;;;;;;;;;;6.90;85.81;103832.72;5010733;28;20462;-63
2023/12/16 02:21:56;;;;;;;;;;;;;;;6.89;85.22;103841.56;5018324;28;20512;-64
2023/12/16 02:24:22;;;;;;;;;;;;;;;6.87;85.16;103842.56;5013318;28;19995;-63
2023/12/16 02:26:47;;;;;;;;;;;;;;;6.86;85.01;103843.50;5019169;28;19932;-63
2023/12/16 02:29:12;;;;;;;;;;;;;;;6.84;85.51;103843.56;5020432;28;19970;-63
2023/12/16 02:31:37;;;;;;;;;;;;;;;6.82;85.15;103848.94;5011825;28;19992;-63
2023/12/16 02:34:03;;;;;;;;;;;;;;;6.79;85.20;103848.22;5018774;28;19925;-63
2023/12/16 02:36:28;;;;;;;;;;;;;;;6.69;85.05;103842.53;5013553;28;19925;-63
2023/12/16 02:38:53;;;;;;;;;;;;;;;6.71;84.99;103853.00;5009551;28;19925;-63
2023/12/16 02:41:21;;;;;;;;;;;;;;;6.65;85.25;103848.88;5011926;28;19921;-63
2023/12/16 02:43:46;;;;;;;;;;;;;;;6.60;85.38;103836.78;5016095;28;20036;-63
2023/12/16 02:46:11;;;;;;;;;;;;;;;6.57;85.50;103847.50;5012647;28;20034;-63
2023/12/16 02:48:38;;;;;;;;;;;;;;;6.52;85.80;103840.66;5014716;28;19925;-63
2023/12/16 02:51:03;;;;;;;;;;;;;;;6.49;85.80;103840.78;5015832;28;19929;-63
2023/12/16 02:53:29;;;;;;;;;;;;;;;6.47;86.32;103836.50;5013551;28;19991;-63
2023/12/16 02:55:54;;;;;;;;;;;;;;;6.44;86.03;103828.72;5017827;28;19924;-63
2023/12/16 02:58:19;;;;;;;;;;;;;;;6.39;86.08;103831.59;5019658;28;19951;-63
2023/12/16 03:00:44;;;;;;;;;;;;;;;6.37;86.59;103840.50;5021846;28;19928;-63
2023/12/16 03:03:10;;;;;;;;;;;;;;;6.33;86.58;103837.13;5020239;28;19921;-63
2023/12/16 03:05:36;;;;;;;;;;;;;;;6.30;86.83;103831.97;5017002;28;20403;-63
2023/12/16 03:08:01;;;;;;;;;;;;;;;6.26;86.97;103834.84;5012856;28;19913;-63
2023/12/16 03:10:26;;;;;;;;;;;;;;;6.22;87.14;103836.75;5006463;28;19925;-63
2023/12/16 03:12:51;;;;;;;;;;;;;;;6.17;87.06;103836.97;5014889;28;19926;-63
2023/12/16 03:15:16;;;;;;;;;;;;;;;6.14;87.47;103836.25;5009396;28;19921;-63
2023/12/16 03:17:43;;;;;;;;;;;;;;;6.13;87.46;103838.03;5009401;28;19925;-63
2023/12/16 03:20:09;;;;;;;;;;;;;;;6.11;87.40;103834.63;5015564;28;19928;-63
2023/12/16 03:22:34;;;;;;;;;;;;;;;6.11;87.64;103836.41;5015832;28;19943;-64
2023/12/16 03:24:59;;;;;;;;;;;;;;;6.08;87.96;103834.75;5015954;28;20416;-63
2023/12/16 03:27:24;;;;;;;;;;;;;;;6.06;87.77;103827.81;5017100;28;20314;-62
2023/12/16 03:29:50;;;;;;;;;;;;;;;6.05;88.12;103815.53;5022545;28;20277;-63
2023/12/16 03:32:15;;;;;;;;;;;;;;;6.03;88.24;103826.16;5013800;28;19931;-63
2023/12/16 03:34:40;;;;;;;;;;;;;;;6.03;88.00;103833.22;5018301;28;19956;-63
2023/12/16 03:37:05;;;;;;;;;;;;;;;6.03;88.58;103830.56;5015699;28;19921;-62
2023/12/16 03:39:31;;;;;;;;;;;;;;;6.03;88.35;103831.44;5007260;28;19921;-63
2023/12/16 03:41:56;;;;;;;;;;;;;;;6.02;88.79;103827.09;5010848;28;19922;-63
2023/12/16 03:44:21;;;;;;;;;;;;;;;6.01;88.74;103835.06;5004922;28;19928;-64
2023/12/16 03:46:46;;;;;;;;;;;;;;;5.99;88.73;103831.63;5019901;28;19926;-63
2023/12/16 03:49:11;;;;;;;;;;;;;;;5.98;88.77;103822.00;5012675;28;19924;-63
2023/12/16 03:51:37;;;;;;;;;;;;;;;5.97;88.92;103823.78;5012457;28;20291;-63
2023/12/16 03:54:02;;;;;;;;;;;;;;;5.97;89.33;103822.94;5008987;28;20481;-63
2023/12/16 03:56:27;;;;;;;;;;;;;;;5.97;89.39;103829.06;5012274;28;20455;-63
2023/12/16 03:58:52;;;;;;;;;;;;;;;5.97;89.40;103828.22;5013404;28;19921;-63
2023/12/16 04:01:18;;;;;;;;;;;;;;;5.97;89.52;103826.44;5009061;28;19925;-63
2023/12/16 04:03:43;;;;;;;;;;;;;;;6.01;89.66;103830.66;5012764;28;19972;-63
2023/12/16 04:06:11;;;;;;;;;;;;;;;6.02;89.85;103831.50;5014885;28;19925;-63
2023/12/16 04:08:37;;;;;;;;;;;;;;;6.05;89.59;103837.50;5015157;28;19972;-63
2023/12/16 04:11:02;;;;;;;;;;;;;;;6.05;89.53;103834.00;5016706;28;19957;-63
2023/12/16 04:13:27;;;;;;;;;;;;;;;6.05;89.86;103836.63;5008868;28;20350;-63
2023/12/16 04:15:53;;;;;;;;;;;;;;;6.04;89.75;103838.41;5019345;28;20457;-63
2023/12/16 04:18:18;;;;;;;;;;;;;;;6.02;90.02;103847.31;5009125;28;19925;-64
2023/12/16 04:20:43;;;;;;;;;;;;;;;5.94;90.19;103833.63;5016501;28;19925;-63
2023/12/16 04:23:09;;;;;;;;;;;;;;;6.01;89.97;103840.34;5021568;28;19928;-63
2023/12/16 04:25:34;;;;;;;;;;;;;;;6.05;90.09;103836.63;5018534;28;20017;-62
2023/12/16 04:27:59;;;;;;;;;;;;;;;6.05;90.42;103834.00;5011504;28;19917;-63
2023/12/16 04:30:25;;;;;;;;;;;;;;;6.08;90.21;103839.16;5018046;28;20042;-62
2023/12/16 04:32:50;;;;;;;;;;;;;;;6.08;90.54;103825.97;5021156;28;20031;-63
2023/12/16 04:35:15;;;;;;;;;;;;;;;6.10;90.56;103826.78;5014720;28;20806;-64
2023/12/16 04:37:40;;;;;;;;;;;;;;;6.12;90.64;103822.28;5019061;28;19925;-63
2023/12/16 04:40:06;;;;;;;;;;;;;;;6.13;90.49;103819.56;5013004;28;19929;-63
2023/12/16 04:42:31;;;;;;;;;;;;;;;6.14;90.55;103815.16;5015498;28;19931;-63
2023/12/16 04:44:56;;;;;;;;;;;;;;;6.16;90.62;103814.16;5016379;28;20408;-63
2023/12/16 04:47:22;;;;;;;;;;;;;;;6.17;90.69;103815.00;5018917;28;19944;-63
2023/12/16 04:49:47;;;;;;;;;;;;;;;6.17;90.73;103809.72;5017176;28;19968;-63
2023/12/16 04:52:12;;;;;;;;;;;;;;;6.16;90.91;103808.88;5022387;28;19929;-63
2023/12/16 04:54:37;;;;;;;;;;;;;;;6.17;90.88;103812.38;5015974;28;19925;-63
2023/12/16 04:57:02;;;;;;;;;;;;;;;6.17;91.13;103812.38;5017544;28;19925;-62
2023/12/16 04:59:28;;;;;;;;;;;;;;;6.16;91.50;103815.94;5019700;28;19928;-63
2023/12/16 05:01:53;;;;;;;;;;;;;;;6.14;91.08;103810.72;5010087;28;20338;-62
2023/12/16 05:04:18;;;;;;;;;;;;;;;6.10;91.57;103814.44;5022133;28;20365;-63
2023/12/16 05:06:44;;;;;;;;;;;;;;;6.09;91.41;103822.41;5018832;28;19978;-64
2023/12/16 05:09:12;;;;;;;;;;;;;;;6.09;91.53;103822.41;5017202;28;19924;-63
2023/12/16 05:11:37;;;;;;;;;;;;;;;6.12;91.94;103811.72;5013786;28;19921;-63
2023/12/16 05:14:02;;;;;;;;;;;;;;;6.12;91.98;103822.28;5014820;28;19979;-63
2023/12/16 05:16:28;;;;;;;;;;;;;;;6.13;91.69;103826.63;5007081;28;19913;-63
2023/12/16 05:18:53;;;;;;;;;;;;;;;6.09;92.23;103825.91;5018165;28;19913;-63
2023/12/16 05:21:19;;;;;;;;;;;;;;;6.09;92.04;103830.34;5018621;28;19929;-62
2023/12/16 05:23:44;;;;;;;;;;;;;;;6.05;92.37;103840.13;5022388;28;19928;-63
2023/12/16 05:26:09;;;;;;;;;;;;;;;6.05;92.31;103840.13;5020585;28;19966;-63
2023/12/16 05:28:34;;;;;;;;;;;;;;;6.03;92.45;103849.03;5017711;28;20382;-63
2023/12/16 05:31:00;;;;;;;;;;;;;;;5.99;92.63;103839.56;5015481;28;20398;-63
2023/12/16 05:33:25;;;;;;;;;;;;;;;5.96;92.28;103840.53;5011933;28;19933;-63
2023/12/16 05:35:50;;;;;;;;;;;;;;;5.95;92.58;103832.69;5017877;28;19921;-63
2023/12/16 05:38:15;;;;;;;;;;;;;;;5.94;92.65;103834.47;5010020;28;19917;-63
2023/12/16 05:40:40;;;;;;;;;;;;;;;5.95;92.91;103838.84;5013242;28;19968;-63
2023/12/16 05:43:07;;;;;;;;;;;;;;;5.94;92.92;103839.75;5011420;28;19975;-63
2023/12/16 05:45:33;;;;;;;;;;;;;;;5.93;92.86;103834.56;5008312;28;19921;-63
2023/12/16 05:47:58;;;;;;;;;;;;;;;5.92;93.12;103827.56;5013890;28;19931;-63
2023/12/16 05:50:23;;;;;;;;;;;;;;;5.89;93.41;103832.06;5014137;28;19923;-63
2023/12/16 05:52:48;;;;;;;;;;;;;;;5.91;93.42;103821.44;5015374;28;19925;-63
2023/12/16 05:55:14;;;;;;;;;;;;;;;5.88;93.14;103813.63;5018568;28;19921;-63
2023/12/16 05:57:39;;;;;;;;;;;;;;;5.86;93.44;103816.34;5013923;28;20431;-63
2023/12/16 06:00:05;;;;;;;;;;;;;;;5.86;93.41;103815.47;5023762;28;19920;-63
2023/12/16 06:02:30;;;;;;;;;;;;;;;5.87;93.51;103825.09;5018786;28;19918;-63
2023/12/16 06:04:55;;;;;;;;;;;;;;;5.86;93.59;103820.75;5013252;28;19921;-63
2023/12/16 06:07:20;;;;;;;;;;;;;;;5.87;93.87;103820.69;5012970;28;19928;-63
2023/12/16 06:09:46;;;;;;;;;;;;;;;5.89;94.10;103826.78;5015732;28;20395;-63
2023/12/16 06:12:11;;;;;;;;;;;;;;;5.92;93.70;103827.56;5015840;28;19921;-63
2023/12/16 06:14:36;;;;;;;;;;;;;;;5.92;93.80;103819.66;5017345;28;19933;-63
2023/12/16 06:17:01;;;;;;;;;;;;;;;5.97;93.96;103828.22;5009052;28;19929;-63
2023/12/16 06:19:27;;;;;;;;;;;;;;;5.98;93.63;103820.22;5009722;28;19920;-63
2023/12/16 06:21:52;;;;;;;;;;;;;;;5.96;93.59;103827.34;5013237;28;19925;-63
2023/12/16 06:24:17;;;;;;;;;;;;;;;5.89;93.61;103820.63;5013290;28;19964;-63
2023/12/16 06:26:42;;;;;;;;;;;;;;;5.92;93.74;103817.88;5012765;28;19925;-62
2023/12/16 06:29:07;;;;;;;;;;;;;;;5.91;93.85;103826.72;5016123;28;19967;-63
2023/12/16 06:31:33;;;;;;;;;;;;;;;5.90;93.95;103825.00;5017305;28;19922;-63
2023/12/16 06:33:59;;;;;;;;;;;;;;;5.88;93.69;103825.03;5005068;28;19965;-63
2023/12/16 06:36:24;;;;;;;;;;;;;;;5.88;94.18;103829.44;5010592;28;20544;-63
2023/12/16 06:38:49;;;;;;;;;;;;;;;5.89;93.91;103832.06;5015170;28;19932;-63
2023/12/16 06:41:14;;;;;;;;;;;;;;;5.89;94.27;103824.13;5011796;28;20412;-63
2023/12/16 06:43:40;;;;;;;;;;;;;;;5.89;94.37;103826.78;5007731;28;19921;-63
2023/12/16 06:46:05;;;;;;;;;;;;;;;5.85;93.99;103833.06;5015120;28;19933;-63
2023/12/16 06:48:30;;;;;;;;;;;;;;;5.82;94.26;103845.53;5005929;28;19924;-63
2023/12/16 06:50:57;;;;;;;;;;;;;;;5.83;94.15;103837.56;5008783;28;19949;-63
2023/12/16 06:53:23;;;;;;;;;;;;;;;5.82;94.38;103841.13;5014959;28;19921;-62
2023/12/16 06:55:48;;;;;;;;;;;;;;;5.81;94.15;103830.66;5013504;28;19925;-62
2023/12/16 06:58:13;;;;;;;;;;;;;;;5.81;94.31;103835.91;5024990;28;19921;-63
2023/12/16 07:00:39;;;;;;;;;;;;;;;5.79;94.34;103835.13;5005930;28;19988;-63
2023/12/16 07:03:04;;;;;;;;;;;;;;;5.78;94.50;103831.63;5014192;28;20781;-63
2023/12/16 07:05:32;;;;;;;;;;;;;;;5.76;94.43;103836.09;5011903;28;19999;-63
2023/12/16 07:07:58;;;;;;;;;;;;;;;5.74;94.46;103837.09;5016961;28;20688;-63
2023/12/16 07:10:23;;;;;;;;;;;;;;;5.74;94.50;103837.09;5015990;28;19921;-63
2023/12/16 07:12:49;;;;;;;;;;;;;;;5.72;94.67;103844.19;5020353;28;19935;-63
2023/12/16 07:15:14;;;;;;;;;;;;;;;5.72;95.01;103839.78;5019342;28;20596;-63
2023/12/16 07:17:40;;;;;;;;;;;;;;;5.72;94.88;103845.06;5003050;28;20886;-63
2023/12/16 07:20:06;;;;;;;;;;;;;;;5.74;95.08;103840.56;5013170;28;20039;-63
2023/12/16 07:22:31;;;;;;;;;;;;;;;5.75;94.80;103844.06;5014062;28;19917;-62
2023/12/16 07:24:57;;;;;;;;;;;;;;;5.76;95.00;103845.78;5015550;28;19925;-63
2023/12/16 07:27:22;;;;;;;;;;;;;;;5.73;94.75;103852.03;5007671;28;20006;-64
2023/12/16 07:29:49;;;;;;;;;;;;;;;5.72;94.99;103858.25;5009163;28;19917;-64
2023/12/16 07:32:14;;;;;;;;;;;;;;;5.77;95.15;103847.50;5013586;28;19979;-63
2023/12/16 07:34:40;;;;;;;;;;;;;;;5.73;95.21;103852.03;5017060;28;19921;-63
2023/12/16 07:37:05;;;;;;;;;;;;;;;5.71;95.05;103853.88;5014059;28;19922;-63
2023/12/16 07:39:31;;;;;;;;;;;;;;;5.68;95.24;103854.03;5007154;28;19917;-63
2023/12/16 07:41:56;;;;;;;;;;;;;;;5.62;95.14;103854.28;5013653;28;19932;-63
2023/12/16 07:44:21;;;;;;;;;;;;;;;5.58;94.95;103855.34;5011517;28;19925;-64
2023/12/16 07:46:46;;;;;;;;;;;;;;;5.56;95.43;103865.09;5006828;28;19948;-63
2023/12/16 07:49:12;;;;;;;;;;;;;;;5.54;95.42;103864.31;5004139;28;20310;-64
2023/12/16 07:51:37;;;;;;;;;;;;;;;5.53;95.65;103855.53;5011099;28;20420;-63
2023/12/16 07:54:02;;;;;;;;;;;;;;;5.56;95.62;103859.81;5012110;28;19921;-63
2023/12/16 07:56:28;;;;;;;;;;;;;;;5.53;96.02;103871.34;5016024;28;19921;-63
2023/12/16 07:58:54;;;;;;;;;;;;;;;5.55;96.32;103873.94;5012785;28;20458;-64
2023/12/16 08:01:19;;;;;;;;;;;;;;;5.53;96.09;103876.63;5018575;28;20011;-63
2023/12/16 08:03:45;;;;;;;;;;;;;;;5.55;96.46;103885.31;5023601;28;19957;-63
2023/12/16 08:06:10;;;;;;;;;;;;;;;5.58;96.13;103887.84;5016303;28;19924;-62
2023/12/16 08:08:39;;;;;;;;;;;;;;;5.62;96.20;103891.19;5013954;28;19983;-63
2023/12/16 08:11:05;;;;;;;;;;;;;;;5.59;96.04;103884.28;5017874;28;19975;-63
2023/12/16 08:13:30;;;;;;;;;;;;;;;5.59;96.17;103880.78;5025042;28;19929;-63
2023/12/16 08:15:56;;;;;;;;;;;;;;;5.60;96.53;103885.13;5014548;28;19918;-64
2023/12/16 08:18:21;;;;;;;;;;;;;;;5.62;96.44;103888.56;5008930;28;20271;-63
2023/12/16 08:20:46;;;;;;;;;;;;;;;5.65;96.47;103893.69;5022401;28;20443;-62
2023/12/16 08:23:11;;;;;;;;;;;;;;;5.69;96.42;103886.53;5010522;28;20052;-63
2023/12/16 08:25:37;;;;;;;;;;;;;;;5.71;96.47;103888.16;5009949;28;19917;-63
2023/12/16 08:28:02;;;;;;;;;;;;;;;5.73;96.60;103891.59;5011155;28;19930;-63
2023/12/16 08:30:27;;;;;;;;;;;;;;;5.81;96.74;103888.66;5013407;28;19952;-63
2023/12/16 08:32:53;;;;;;;;;;;;;;;5.85;96.85;103888.47;5016266;28;19917;-63
2023/12/16 08:35:18;;;;;;;;;;;;;;;5.93;96.64;103889.94;5028532;28;19923;-63
2023/12/16 08:37:43;;;;;;;;;;;;;;;6.02;96.58;103886.91;5019738;28;20015;-63
2023/12/16 08:40:09;;;;;;;;;;;;;;;6.04;96.32;103896.47;5016030;28;19933;-63
2023/12/16 08:42:34;;;;;;;;;;;;;;;6.11;96.57;103879.47;5011555;28;19971;-62
2023/12/16 08:45:00;;;;;;;;;;;;;;;6.10;96.06;103867.19;5023292;28;19924;-63
2023/12/16 08:47:25;;;;;;;;;;;;;;;6.12;96.33;103869.75;5016065;28;19921;-64
2023/12/16 08:49:50;;;;;;;;;;;;;;;6.13;96.34;103872.34;5013722;28;20385;-63
2023/12/16 08:52:15;;;;;;;;;;;;;;;6.18;96.46;103874.78;5018133;28;20375;-63
2023/12/16 08:54:41;;;;;;;;;;;;;;;6.23;96.85;103885.97;5014852;28;19995;-62
2023/12/16 08:57:06;;;;;;;;;;;;;;;6.25;96.97;103899.09;5011296;28;19917;-63
2023/12/16 08:59:32;;;;;;;;;;;;;;;6.32;97.41;103897.91;5010554;28;20003;-63
2023/12/16 09:01:57;;;;;;;;;;;;;;;6.38;97.46;103900.28;5013110;28;20319;-63
2023/12/16 09:04:22;;;;;;;;;;;;;;;6.44;97.53;103897.38;5018281;28;19979;-63
2023/12/16 09:06:48;;;;;;;;;;;;;;;6.47;97.67;103910.44;5017086;28;19960;-63
2023/12/16 09:09:14;;;;;;;;;;;;;;;6.52;97.67;103913.72;5015120;28;19999;-63
2023/12/16 09:11:40;;;;;;;;;;;;;;;6.59;97.83;103922.22;5012000;28;19928;-62
2023/12/16 09:14:05;;;;;;;;;;;;;;;6.64;98.08;103915.78;5025499;28;19925;-63
2023/12/16 09:16:30;;;;;;;;;;;;;;;6.69;98.26;103907.69;5011534;28;19921;-63
2023/12/16 09:18:56;;;;;;;;;;;;;;;6.78;98.39;103915.19;5012872;28;20444;-63
2023/12/16 09:21:21;;;;;;;;;;;;;;;6.81;98.87;103920.31;5011051;28;19947;-63
2023/12/16 09:23:47;;;;;;;;;;;;;;;6.86;99.39;103918.31;5017757;28;19925;-63
2023/12/16 09:26:13;;;;;;;;;;;;;;;6.91;99.72;103918.09;5016761;28;19921;-62
2023/12/16 09:28:38;;;;;;;;;;;;;;;6.98;99.92;103917.75;5012330;28;19921;-63
2023/12/16 09:31:03;;;;;;;;;;;;;;;7.04;99.84;103920.13;5014108;28;20379;-63
2023/12/16 09:33:29;;;;;;;;;;;;;;;7.10;100.00;103922.47;5011355;28;19926;-63
2023/12/16 09:35:54;;;;;;;;;;;;;;;7.15;100.00;103912.53;5007913;28;20290;-63
2023/12/16 09:38:19;;;;;;;;;;;;;;;7.22;100.00;103926.31;5015929;28;19957;-63
2023/12/16 09:40:45;;;;;;;;;;;;;;;7.31;100.00;103925.88;5010786;28;19978;-63
2023/12/16 09:43:16;;;;;;;;;;;;;;;7.35;100.00;103929.22;5015428;28;20036;-63
2023/12/16 09:45:46;;;;;;;;;;;;;;;7.39;100.00;103930.78;5016221;28;20826;-63
2023/12/16 09:48:13;;;;;;;;;;;;;;;7.42;100.00;103941.22;5017972;28;20024;-63
2023/12/16 09:50:40;;;;;;;;;;;;;;;7.45;100.00;103941.91;5015218;28;19925;-63
2023/12/16 09:53:05;;;;;;;;;;;;;;;7.47;100.00;103949.78;5021135;28;19931;-63
2023/12/16 09:55:30;;;;;;;;;;;;;;;7.53;100.00;103956.59;5015856;28;19920;-63
2023/12/16 09:57:57;;;;;;;;;;;;;;;7.57;100.00;103945.78;5018681;28;19927;-63
2023/12/16 10:00:23;;;;;;;;;;;;;;;7.59;100.00;103946.56;5011472;28;20418;-63
2023/12/16 10:02:51;;;;;;;;;;;;;;;7.64;100.00;103952.47;5017898;28;19917;-63
2023/12/16 10:05:17;;;;;;;;;;;;;;;7.67;100.00;103939.09;5009971;28;19917;-64
2023/12/16 10:07:42;;;;;;;;;;;;;;;7.67;100.00;103944.38;5015032;28;20388;-63
2023/12/16 10:10:08;;;;;;;;;;;;;;;7.68;100.00;103946.09;5019568;28;20302;-63
2023/12/16 10:12:36;;;;;;;;;;;;;;;7.70;100.00;103941.59;5017454;28;20886;-63
2023/12/16 10:15:01;;;;;;;;;;;;;;;7.75;100.00;103947.50;5013220;28;19921;-63
2023/12/16 10:17:28;;;;;;;;;;;;;;;7.74;100.00;103953.72;5025050;28;19928;-63
2023/12/16 10:19:53;;;;;;;;;;;;;;;7.77;100.00;103947.44;5009134;28;19918;-63
2023/12/16 10:22:20;;;;;;;;;;;;;;;7.75;100.00;103944.00;5009047;28;20294;-63
2023/12/16 10:24:45;;;;;;;;;;;;;;;7.78;100.00;103955.28;5012919;28;19921;-64
2023/12/16 10:27:11;;;;;;;;;;;;;;;7.83;100.00;103954.22;5008643;28;19921;-63
2023/12/16 10:29:39;;;;;;;;;;;;;;;7.79;100.00;103956.13;5010769;28;19920;-63
2023/12/16 10:32:05;;;;;;;;;;;;;;;7.81;100.00;103953.44;5009189;28;19924;-63
2023/12/16 10:34:30;;;;;;;;;;;;;;;7.84;100.00;103953.28;5002914;28;19921;-64
2023/12/16 10:37:05;;;;;;;;;;;;;;;7.85;100.00;103950.56;5006795;28;19927;-63
2023/12/16 10:39:31;;;;;;;;;;;;;;;7.82;100.00;103939.28;5005145;28;19999;-64
2023/12/16 10:41:56;;;;;;;;;;;;;;;7.84;100.00;103932.13;5007238;28;20003;-64
2023/12/16 10:44:21;;;;;;;;;;;;;;;7.83;100.00;103930.41;5007005;28;20019;-63
2023/12/16 10:46:49;;;;;;;;;;;;;;;7.83;100.00;103935.72;5011162;28;20067;-63
2023/12/16 10:49:15;;;;;;;;;;;;;;;7.84;100.00;103930.34;5003395;28;19924;-63
2023/12/16 10:51:43;;;;;;;;;;;;;;;7.87;100.00;103926.69;5008218;28;19918;-63
2023/12/16 10:54:24;;;;;;;;;;;;;;;7.88;100.00;103925.75;5008195;28;19979;-63
2023/12/16 10:56:58;;;;;;;;;;;;;;;7.89;100.00;103930.09;5004568;28;20359;-63
2023/12/16 10:59:29;;;;;;;;;;;;;;;7.87;100.00;103922.25;5007511;28;19924;-63
2023/12/16 11:01:56;;;;;;;;;;;;;;;7.89;100.00;103922.16;5009471;28;19922;-63
2023/12/16 11:04:28;;;;;;;;;;;;;;;7.90;100.00;103924.72;5011739;28;19928;-64
2023/12/16 11:07:04;;;;;;;;;;;;;;;7.92;100.00;103917.56;5012804;28;19956;-64
2023/12/16 11:09:29;;;;;;;;;;;;;;;7.89;100.00;103923.03;5013953;28;20507;-63
2023/12/16 11:11:57;;;;;;;;;;;;;;;7.92;100.00;103920.22;5015646;28;19996;-63
2023/12/16 11:14:23;;;;;;;;;;;;;;;7.92;100.00;103920.22;5014392;28;20809;-64
2023/12/16 11:17:05;;;;;;;;;;;;;;;7.92;100.00;103924.66;5002877;28;19953;-63
2023/12/16 11:19:33;;;;;;;;;;;;;;;7.92;100.00;103914.91;5003834;28;20401;-63
2023/12/16 11:21:59;;;;;;;;;;;;;;;7.95;100.00;103903.31;5007588;28;19924;-63
2023/12/16 11:24:24;;;;;;;;;;;;;;;7.92;100.00;103906.97;5013072;28;19936;-63
2023/12/16 11:26:53;;;;;;;;;;;;;;;7.90;100.00;103892.13;5008529;28;20335;-63
2023/12/16 11:29:22;;;;;;;;;;;;;;;7.92;100.00;103888.47;5018443;28;20341;-63
2023/12/16 11:31:54;;;;;;;;;;;;;;;7.94;100.00;103885.72;5009724;28;19924;-64
2023/12/16 11:34:38;;;;;;;;;;;;;;;7.94;100.00;103877.78;5004995;28;19922;-64
2023/12/16 11:37:03;;;;;;;;;;;;;;;7.97;100.00;103886.44;5002884;28;20486;-63
2023/12/16 11:39:35;;;;;;;;;;;;;;;7.96;100.00;103891.81;5006262;28;20474;-63
2023/12/16 11:42:00;;;;;;;;;;;;;;;7.97;100.00;103890.88;5005303;28;20015;-63
2023/12/16 11:44:44;;;;;;;;;;;;;;;7.96;100.00;103884.72;5006608;28;20009;-63
2023/12/16 11:47:17;;;;;;;;;;;;;;;7.91;100.00;103876.16;5006454;28;19921;-63
2023/12/16 11:49:42;;;;;;;;;;;;;;;7.93;100.00;103882.22;5002216;28;20028;-63
2023/12/16 11:52:07;;;;;;;;;;;;;;;7.91;100.00;103865.56;5017371;28;19917;-64
2023/12/16 11:54:32;;;;;;;;;;;;;;;7.90;100.00;103873.59;5003175;28;19960;-63
2023/12/16 11:56:57;;;;;;;;;;;;;;;7.91;100.00;103870.88;5018684;28;19920;-64
2023/12/16 11:59:23;;;;;;;;;;;;;;;7.93;100.00;103870.78;5011988;28;19936;-63
2023/12/16 12:01:48;;;;;;;;;;;;;;;7.93;100.00;103868.16;5010789;28;19917;-64
2023/12/16 12:04:13;;;;;;;;;;;;;;;7.95;100.00;103863.63;5015961;28;19920;-63
2023/12/16 12:06:40;;;;;;;;;;;;;;;7.93;100.00;103868.16;5007887;28;19921;-63
2023/12/16 12:09:05;;;;;;;;;;;;;;;7.92;100.00;103866.44;5013319;28;20393;-63
2023/12/16 12:11:30;;;;;;;;;;;;;;;7.93;100.00;103865.50;5015035;28;19917;-63
2023/12/16 12:13:56;;;;;;;;;;;;;;;7.92;100.00;103863.78;5011353;28;19932;-64
2023/12/16 12:16:21;;;;;;;;;;;;;;;7.91;100.00;103862.06;5012662;28;20005;-63
2023/12/16 12:18:47;;;;;;;;;;;;;;;7.93;100.00;103860.22;5006144;28;19928;-63
2023/12/16 12:21:12;;;;;;;;;;;;;;;7.91;100.00;103855.00;5006670;28;19921;-64
2023/12/16 12:23:38;;;;;;;;;;;;;;;7.90;100.00;103855.06;5011820;28;20004;-63
2023/12/16 12:26:04;;;;;;;;;;;;;;;7.87;100.00;103853.44;5008694;28;19925;-64
2023/12/16 12:28:29;;;;;;;;;;;;;;;7.88;100.00;103854.31;5014717;28;19968;-63
2023/12/16 12:31:20;;;;;;;;;;;;;;;7.85;100.00;103849.16;5014476;28;20004;-63
2023/12/16 12:33:47;;;;;;;;;;;;;;;7.82;100.00;103841.41;5013841;28;19932;-63
2023/12/16 12:36:13;;;;;;;;;;;;;;;7.80;100.00;103848.53;5002672;28;19928;-63
2023/12/16 12:38:38;;;;;;;;;;;;;;;7.78;100.00;103849.47;5005847;28;19950;-64